createdAt,value
2019-05-15T00:02:00.546Z,1.23
2019-05-15T00:04:31.330Z,1.43
2019-05-15T00:07:02.157Z,1.27
2019-05-15T00:09:33.151Z,1.30
2019-05-15T00:12:05.812Z,1.40
2019-05-15T00:14:38.883Z,1.40
2019-05-15T00:17:09.813Z,1.70
2019-05-15T00:19:40.626Z,1.50
2019-05-15T00:22:11.551Z,1.52
2019-05-15T00:24:42.488Z,1.20
2019-05-15T00:27:14.605Z,1.27
2019-05-15T00:29:45.423Z,1.17
2019-05-15T00:32:18.498Z,1.30
2019-05-15T00:34:48.911Z,1.33
2019-05-15T00:37:19.619Z,1.10
2019-05-15T00:39:50.547Z,1.23
2019-05-15T00:42:21.443Z,1.80
2019-05-15T00:44:52.299Z,2.00
2019-05-15T00:47:23.065Z,1.02
2019-05-15T00:49:54.073Z,1.43
2019-05-15T00:52:24.995Z,1.87
2019-05-15T00:54:55.933Z,1.53
2019-05-15T00:57:28.335Z,1.60
2019-05-15T00:59:59.230Z,1.40
2019-05-15T01:02:30.141Z,1.57
2019-05-15T01:05:01.098Z,1.33
2019-05-15T01:07:32.016Z,1.20
2019-05-15T01:10:03.914Z,1.40
2019-05-15T01:12:34.863Z,1.80
2019-05-15T01:15:06.295Z,1.53
2019-05-15T01:17:39.085Z,1.27
2019-05-15T01:20:09.620Z,1.50
2019-05-15T01:22:40.558Z,1.30
2019-05-15T01:25:11.408Z,1.13
2019-05-15T01:27:42.302Z,1.50
2019-05-15T01:30:13.571Z,1.67
2019-05-15T01:32:44.496Z,2.17
2019-05-15T01:35:17.918Z,1.33
2019-05-15T01:37:48.432Z,1.67
2019-05-15T01:40:19.288Z,1.98
2019-05-15T01:42:50.136Z,1.73
2019-05-15T01:45:21.161Z,1.90
2019-05-15T01:47:52.009Z,1.77
2019-05-15T01:50:22.902Z,2.22
2019-05-15T01:52:53.667Z,2.17
2019-05-15T01:55:24.788Z,1.90
2019-05-15T01:57:55.595Z,1.60
2019-05-15T02:00:28.258Z,2.00
2019-05-15T02:02:59.152Z,2.15
2019-05-15T02:05:30.036Z,1.77
2019-05-15T02:08:01.029Z,1.53
2019-05-15T02:10:31.753Z,1.57
2019-05-15T02:13:03.672Z,1.60
2019-05-15T02:15:34.767Z,1.80
2019-05-15T02:18:08.188Z,1.80
2019-05-15T02:20:39.119Z,1.97
2019-05-15T02:23:11.928Z,1.50
2019-05-15T02:25:42.978Z,1.67
2019-05-15T02:28:13.803Z,1.87
2019-05-15T02:30:44.567Z,2.30
2019-05-15T02:33:18.884Z,1.37
2019-05-15T02:35:50.144Z,1.55
2019-05-15T02:38:21.409Z,1.80
2019-05-15T02:40:52.258Z,1.83
2019-05-15T02:43:23.080Z,2.07
2019-05-15T02:45:54.822Z,1.60
2019-05-15T02:48:28.962Z,2.10
2019-05-15T02:51:01.157Z,1.90
2019-05-15T02:53:32.015Z,1.47
2019-05-15T02:56:02.730Z,2.10
2019-05-15T02:58:33.419Z,1.60
2019-05-15T03:01:04.406Z,1.73
2019-05-15T03:03:35.237Z,1.80
2019-05-15T03:06:10.056Z,1.70
2019-05-15T03:08:40.803Z,2.72
2019-05-15T03:11:11.650Z,2.00
2019-05-15T03:13:42.530Z,1.83
2019-05-15T03:16:13.387Z,1.95
2019-05-15T03:18:44.612Z,1.80
2019-05-15T03:21:18.635Z,2.07
2019-05-15T03:23:50.695Z,2.60
2019-05-15T03:26:21.108Z,2.10
2019-05-15T03:28:52.239Z,1.67
2019-05-15T03:31:43.348Z,2.20
2019-05-15T03:34:01.933Z,1.73
2019-05-15T03:36:31.855Z,2.00
2019-05-15T03:39:02.112Z,1.80
2019-05-15T03:41:34.471Z,2.50
2019-05-15T03:44:05.462Z,3.00
2019-05-15T03:46:39.567Z,2.60
2019-05-15T03:49:09.281Z,2.10
2019-05-15T03:51:45.481Z,2.83
2019-05-15T03:54:13.977Z,1.80
2019-05-15T03:56:44.760Z,2.27
2019-05-15T03:59:15.820Z,1.93
2019-05-15T04:01:49.644Z,2.20
2019-05-15T04:04:20.738Z,2.77
2019-05-15T04:06:53.313Z,2.50
2019-05-15T04:09:29.419Z,2.03
2019-05-15T04:12:00.137Z,2.43
2019-05-15T04:14:31.079Z,2.17
2019-05-15T04:17:02.097Z,2.20
2019-05-15T04:19:32.987Z,2.10
2019-05-15T04:22:03.816Z,2.33
2019-05-15T04:24:34.936Z,2.50
2019-05-15T04:27:10.637Z,2.50
2019-05-15T04:29:39.958Z,1.90
2019-05-15T04:32:11.356Z,2.47
2019-05-15T04:34:43.789Z,2.10
2019-05-15T04:37:15.138Z,2.65
2019-05-15T04:39:48.960Z,2.93
2019-05-15T04:42:20.199Z,2.43
2019-05-15T04:44:51.327Z,1.97
2019-05-15T04:47:24.020Z,2.20
2019-05-15T04:49:54.953Z,2.07
2019-05-15T04:52:30.143Z,2.03
2019-05-15T04:54:59.898Z,2.40
2019-05-15T04:57:34.191Z,2.65
2019-05-15T05:00:04.158Z,2.17
2019-05-15T05:02:35.182Z,2.20
2019-05-15T05:05:09.725Z,2.77
2019-05-15T05:07:40.005Z,2.13
2019-05-15T05:10:10.936Z,2.60
2019-05-15T05:12:42.657Z,2.03
2019-05-15T05:15:13.802Z,2.20
2019-05-15T05:17:44.665Z,2.60
2019-05-15T05:20:17.847Z,2.27
2019-05-15T05:22:48.380Z,2.25
2019-05-15T05:25:19.506Z,1.92
2019-05-15T05:27:50.711Z,2.13
2019-05-15T05:30:23.385Z,2.23
2019-05-15T05:32:54.872Z,2.17
2019-05-15T05:35:27.909Z,2.00
2019-05-15T05:38:00.342Z,2.30
2019-05-15T05:40:31.430Z,2.10
2019-05-15T05:43:03.553Z,1.83
2019-05-15T05:45:35.221Z,1.90
2019-05-15T05:48:08.842Z,1.90
2019-05-15T05:50:44.175Z,2.30
2019-05-15T05:53:14.522Z,1.98
2019-05-15T05:55:45.564Z,2.00
2019-05-15T05:58:19.367Z,1.80
2019-05-15T06:00:49.749Z,1.70
2019-05-15T06:03:20.643Z,2.07
2019-05-15T06:05:51.830Z,6.03
2019-05-15T06:08:23.017Z,2.97
2019-05-15T06:10:55.101Z,4.63
2019-05-15T06:13:26.167Z,4.27
2019-05-15T06:15:59.070Z,2.77
2019-05-15T06:18:30.525Z,2.80
2019-05-15T06:21:01.318Z,3.15
2019-05-15T06:23:34.665Z,2.10
2019-05-15T06:26:05.389Z,2.20
2019-05-15T06:28:36.284Z,2.43
2019-05-15T06:31:08.883Z,2.00
2019-05-15T06:33:39.799Z,2.57
2019-05-15T06:36:10.715Z,2.20
2019-05-15T06:38:41.644Z,2.07
2019-05-15T06:41:12.492Z,1.92
2019-05-15T06:43:43.655Z,1.50
2019-05-15T06:46:14.612Z,1.60
2019-05-15T06:48:45.493Z,1.70
2019-05-15T06:51:18.208Z,2.13
2019-05-15T06:53:49.321Z,1.57
2019-05-15T06:56:20.263Z,1.32
2019-05-15T06:58:51.242Z,1.67
2019-05-15T07:01:22.235Z,1.30
2019-05-15T07:03:53.165Z,1.40
2019-05-15T07:06:25.411Z,1.37
2019-05-15T07:08:58.641Z,1.17
2019-05-15T07:11:30.570Z,1.60
2019-05-15T07:14:01.467Z,1.37
2019-05-15T07:16:32.363Z,0.90
2019-05-15T07:19:04.014Z,1.03
2019-05-15T07:21:34.824Z,1.20
2019-05-15T07:24:05.778Z,1.23
2019-05-15T07:26:38.976Z,1.23
2019-05-15T07:29:09.355Z,1.30
2019-05-15T07:31:40.312Z,1.00
2019-05-15T07:34:11.277Z,1.10
2019-05-15T07:36:42.146Z,1.10
2019-05-15T07:39:13.193Z,0.95
2019-05-15T07:41:44.211Z,0.83
2019-05-15T07:44:15.273Z,0.85
2019-05-15T07:46:46.264Z,1.17
2019-05-15T07:49:18.137Z,0.90
2019-05-15T07:51:49.376Z,1.00
2019-05-15T07:54:20.246Z,0.60
2019-05-15T07:56:51.013Z,0.97
2019-05-15T07:59:21.805Z,1.00
2019-05-15T08:01:52.834Z,0.93
2019-05-15T08:04:29.667Z,3.53
2019-05-15T08:06:58.941Z,1.07
2019-05-15T08:09:29.259Z,0.77
2019-05-15T08:12:03.200Z,0.90
2019-05-15T08:14:33.352Z,0.73
2019-05-15T08:17:04.323Z,0.97
2019-05-15T08:19:35.140Z,0.93
2019-05-15T08:22:08.761Z,0.80
2019-05-15T08:24:39.635Z,0.90
2019-05-15T08:27:11.773Z,0.70
2019-05-15T08:29:42.776Z,0.90
2019-05-15T08:32:13.756Z,0.80
2019-05-15T08:34:44.861Z,0.63
2019-05-15T08:37:18.130Z,0.80
2019-05-15T08:39:48.933Z,0.97
2019-05-15T08:42:20.225Z,0.80
2019-05-15T08:44:51.284Z,1.00
2019-05-15T08:47:22.552Z,0.95
2019-05-15T08:49:53.505Z,0.63
2019-05-15T08:52:24.497Z,0.83
2019-05-15T08:54:55.342Z,0.63
2019-05-15T08:57:28.853Z,0.97
2019-05-15T08:59:59.159Z,0.63
2019-05-15T09:02:31.075Z,0.85
2019-05-15T09:05:02.047Z,0.70
2019-05-15T09:07:33.187Z,1.00
2019-05-15T09:10:06.069Z,0.83
2019-05-15T09:12:38.826Z,0.80
2019-05-15T09:15:10.844Z,0.80
2019-05-15T09:17:41.775Z,0.80
2019-05-15T09:20:12.881Z,1.07
2019-05-15T09:22:44.455Z,0.77
2019-05-15T09:25:19.351Z,0.80
2019-05-15T09:27:50.659Z,0.80
2019-05-15T09:30:21.739Z,0.87
2019-05-15T09:32:52.747Z,0.90
2019-05-15T09:35:23.890Z,0.73
2019-05-15T09:37:54.885Z,0.77
2019-05-15T09:40:41.851Z,0.87
2019-05-15T09:43:00.685Z,1.13
2019-05-15T09:45:31.585Z,1.23
2019-05-15T09:48:03.725Z,1.20
2019-05-15T09:50:39.490Z,0.97
2019-05-15T09:53:09.409Z,0.80
2019-05-15T09:55:40.679Z,0.97
2019-05-15T09:58:13.212Z,1.05
2019-05-15T10:00:44.493Z,1.20
2019-05-15T10:03:18.944Z,1.27
2019-05-15T10:05:50.683Z,1.10
2019-05-15T10:08:21.793Z,0.90
2019-05-15T10:10:55.005Z,1.00
2019-05-15T10:13:28.915Z,0.77
2019-05-15T10:16:00.432Z,1.07
2019-05-15T10:18:33.832Z,1.00
2019-05-15T10:21:09.312Z,1.00
2019-05-15T10:23:40.922Z,1.00
2019-05-15T10:26:14.175Z,1.27
2019-05-15T10:28:45.108Z,1.17
2019-05-15T10:31:16.305Z,1.15
2019-05-15T10:33:49.372Z,0.90
2019-05-15T10:36:21.713Z,1.25
2019-05-15T10:38:53.679Z,0.90
2019-05-15T10:41:25.222Z,1.20
2019-05-15T10:43:59.604Z,1.10
2019-05-15T10:46:32.249Z,1.20
2019-05-15T10:49:03.775Z,1.00
2019-05-15T10:51:39.576Z,1.20
2019-05-15T10:54:13.396Z,1.10
2019-05-15T10:56:51.234Z,0.90
2019-05-15T10:59:23.774Z,1.00
2019-05-15T11:01:54.701Z,1.13
2019-05-15T11:04:28.687Z,1.10
2019-05-15T11:07:01.190Z,0.95
2019-05-15T11:09:40.516Z,1.20
2019-05-15T11:12:10.480Z,1.10
2019-05-15T11:14:42.892Z,1.20
2019-05-15T11:17:13.829Z,1.20
2019-05-15T11:19:49.516Z,1.20
2019-05-15T11:22:19.215Z,0.90
2019-05-15T11:24:52.959Z,1.30
2019-05-15T11:27:23.289Z,1.20
2019-05-15T11:29:54.708Z,0.87
2019-05-15T11:32:29.382Z,1.20
2019-05-15T11:35:04.113Z,1.10
2019-05-15T11:37:34.703Z,1.37
2019-05-15T11:40:10.009Z,0.90
2019-05-15T11:42:40.970Z,0.77
2019-05-15T11:45:12.421Z,1.12
2019-05-15T11:47:48.126Z,1.13
2019-05-15T11:50:22.486Z,0.77
2019-05-15T11:52:58.571Z,0.97
2019-05-15T11:55:29.283Z,0.80
2019-05-15T11:58:02.064Z,1.20
2019-05-15T12:00:38.165Z,0.80
2019-05-15T12:03:10.019Z,1.25
2019-05-15T12:05:42.187Z,1.07
2019-05-15T12:08:13.536Z,0.80
2019-05-15T12:10:48.424Z,0.80
2019-05-15T12:13:21.031Z,1.37
2019-05-15T12:15:52.328Z,1.43
2019-05-15T12:18:23.288Z,1.10
2019-05-15T12:20:54.975Z,1.10
2019-05-15T12:23:29.105Z,1.00
2019-05-15T12:26:02.152Z,0.90
2019-05-15T12:28:34.779Z,1.20
2019-05-15T12:31:08.478Z,1.00
2019-05-15T12:33:39.184Z,1.10
2019-05-15T12:36:11.074Z,1.33
2019-05-15T12:38:44.358Z,1.40
2019-05-15T13:01:44.346Z,1.27
2019-05-15T13:04:16.991Z,1.00
2019-05-15T13:07:11.514Z,1.20
2019-05-15T13:09:22.568Z,1.27
2019-05-15T13:11:55.276Z,0.97
2019-05-15T13:14:28.382Z,1.60
2019-05-15T13:16:59.704Z,1.50
2019-05-15T13:19:31.011Z,1.50
2019-05-15T13:22:01.926Z,1.30
2019-05-15T13:24:33.573Z,1.00
2019-05-15T13:27:07.824Z,0.72
2019-05-15T13:29:39.044Z,1.30
2019-05-15T13:32:11.982Z,1.20
2019-05-15T13:34:43.077Z,1.10
2019-05-15T13:37:26.864Z,1.10
2019-05-15T13:39:49.939Z,1.17
2019-05-15T13:42:22.144Z,1.17
2019-05-15T13:44:53.223Z,1.00
2019-05-15T13:47:24.306Z,1.43
2019-05-15T13:49:56.024Z,1.20
2019-05-15T13:52:28.330Z,1.30
2019-05-15T13:55:00.821Z,1.13
2019-05-15T13:57:32.032Z,1.03
2019-05-15T14:00:03.380Z,1.00
2019-05-15T14:02:38.417Z,0.90
2019-05-15T14:05:09.844Z,0.90
2019-05-15T14:07:49.318Z,1.17
2019-05-15T14:10:18.098Z,0.93
2019-05-15T14:12:49.319Z,1.10
2019-05-15T14:15:21.512Z,1.40
2019-05-15T14:17:54.638Z,1.27
2019-05-15T14:20:28.544Z,1.53
2019-05-15T14:23:00.817Z,1.00
2019-05-15T14:25:31.881Z,1.03
2019-05-15T14:28:03.736Z,1.00
2019-05-15T14:30:35.368Z,1.30
2019-05-15T14:33:08.507Z,0.90
2019-05-15T14:35:40.813Z,1.17
2019-05-15T14:38:14.352Z,1.30
2019-05-15T14:40:45.430Z,1.40
2019-05-15T14:43:18.561Z,1.12
2019-05-15T14:45:53.475Z,1.20
2019-05-15T14:48:25.201Z,1.20
2019-05-15T14:50:58.388Z,1.30
2019-05-15T14:53:29.646Z,1.23
2019-05-15T14:56:02.284Z,1.67
2019-05-15T14:58:34.745Z,1.33
2019-05-15T15:01:12.137Z,1.62
2019-05-15T15:03:42.722Z,1.20
2019-05-15T15:06:14.729Z,1.27
2019-05-15T15:08:45.638Z,0.93
2019-05-15T15:11:18.371Z,1.20
2019-05-15T15:13:49.797Z,1.10
2019-05-15T15:16:22.132Z,1.10
2019-05-15T15:18:52.928Z,1.10
2019-05-15T15:21:23.922Z,1.10
2019-05-15T15:23:58.712Z,0.77
2019-05-15T15:26:38.897Z,1.00
2019-05-15T15:29:10.637Z,1.30
2019-05-15T15:31:42.057Z,1.27
2019-05-15T15:34:13.106Z,0.87
2019-05-15T15:36:44.123Z,1.43
2019-05-15T15:39:15.250Z,1.20
2019-05-15T15:41:48.509Z,0.70
2019-05-15T15:44:19.637Z,0.70
2019-05-15T15:46:50.926Z,1.50
2019-05-15T15:49:22.048Z,1.17
2019-05-15T15:51:53.036Z,1.40
2019-05-15T15:54:24.194Z,1.20
2019-05-15T15:56:57.486Z,1.00
2019-05-15T15:59:29.005Z,1.07
2019-05-15T16:02:00.081Z,1.27
2019-05-15T16:04:34.180Z,1.33
2019-05-15T16:07:09.381Z,1.30
2019-05-15T16:09:39.870Z,1.20
2019-05-15T16:12:11.121Z,0.98
2019-05-15T16:14:42.106Z,0.80
2019-05-15T16:17:13.145Z,0.72
2019-05-15T16:19:44.458Z,0.77
2019-05-15T16:22:15.525Z,1.67
2019-05-15T16:24:48.974Z,1.07
2019-05-15T16:27:19.452Z,1.10
2019-05-15T16:29:50.832Z,1.30
2019-05-15T16:32:24.263Z,1.35
2019-05-15T16:34:55.415Z,1.27
2019-05-15T16:37:26.408Z,1.47
2019-05-15T16:40:00.094Z,1.13
2019-05-15T16:42:34.381Z,1.35
2019-05-15T16:45:24.433Z,1.37
2019-05-15T16:47:55.503Z,1.77
2019-05-15T16:50:28.611Z,1.10
2019-05-15T16:53:01.917Z,1.40
2019-05-15T16:55:33.241Z,1.37
2019-05-15T16:58:05.786Z,1.85
2019-05-15T17:00:38.441Z,1.97
2019-05-15T17:03:14.865Z,2.10
2019-05-15T17:05:47.975Z,1.93
2019-05-15T17:08:20.546Z,1.72
2019-05-15T17:10:58.660Z,1.70
2019-05-15T17:13:39.219Z,1.67
2019-05-15T17:16:11.911Z,1.92
2019-05-15T17:18:44.587Z,2.00
2019-05-15T17:21:18.995Z,1.40
2019-05-15T17:23:51.906Z,1.80
2019-05-15T17:26:28.946Z,1.75
2019-05-15T17:29:00.048Z,1.63
2019-05-15T17:31:32.572Z,2.10
2019-05-15T17:34:05.087Z,2.00
2019-05-15T17:36:38.331Z,1.70
2019-05-15T17:39:11.058Z,2.10
2019-05-15T17:41:43.971Z,2.00
2019-05-15T17:44:19.806Z,2.02
2019-05-15T17:46:50.920Z,1.67
2019-05-15T17:49:22.026Z,1.98
2019-05-15T17:51:54.309Z,2.17
2019-05-15T17:54:25.540Z,1.80
2019-05-15T17:56:58.357Z,1.83
2019-05-15T17:59:29.423Z,1.87
2019-05-15T18:02:01.093Z,1.53
2019-05-15T18:04:32.492Z,1.50
2019-05-15T18:07:05.375Z,2.27
2019-05-15T18:09:48.388Z,1.90
2019-05-15T18:12:11.105Z,1.47
2019-05-15T18:14:42.203Z,1.43
2019-05-15T18:17:15.006Z,1.75
2019-05-15T18:19:45.795Z,1.80
2019-05-15T18:22:18.044Z,1.57
2019-05-15T18:24:49.221Z,1.80
2019-05-15T18:27:21.907Z,1.60
2019-05-15T18:29:52.857Z,2.00
2019-05-15T18:32:24.089Z,1.80
2019-05-15T18:38:01.838Z,1.73
2019-05-15T18:40:33.159Z,1.93
2019-05-15T18:43:09.751Z,2.17
2019-05-15T18:45:50.708Z,1.97
2019-05-15T18:48:24.999Z,1.95
2019-05-15T18:50:58.954Z,1.47
2019-05-15T19:00:15.328Z,1.75
2019-05-15T19:02:48.436Z,1.83
2019-05-15T19:08:29.354Z,2.37
2019-05-15T19:11:00.653Z,1.67
2019-05-15T19:13:31.772Z,1.53
2019-05-15T19:16:02.666Z,1.63
2019-05-15T19:18:33.785Z,2.20
2019-05-15T19:21:07.986Z,1.30
2019-05-15T19:23:40.544Z,2.47
2019-05-15T19:26:29.604Z,2.30
2019-05-15T19:29:04.138Z,2.30
2019-05-15T19:31:43.027Z,2.13
2019-05-15T19:34:18.962Z,1.80
2019-05-15T19:37:11.080Z,2.57
2019-05-15T19:42:38.103Z,2.23
2019-05-15T19:45:11.857Z,2.63
2019-05-15T19:47:47.960Z,1.98
2019-05-15T19:50:35.460Z,1.90
2019-05-15T19:53:31.453Z,2.63
2019-05-15T19:56:05.542Z,2.27
2019-05-15T19:58:39.237Z,2.17
2019-05-15T20:01:34.132Z,2.80
2019-05-15T20:04:07.647Z,3.30
2019-05-15T20:06:43.402Z,2.63
2019-05-15T20:09:38.226Z,2.50
2019-05-15T20:12:31.740Z,2.10
2019-05-15T20:15:08.904Z,2.63
2019-05-15T20:18:07.779Z,3.13
2019-05-15T20:20:42.115Z,2.43
2019-05-15T20:23:21.086Z,2.10
2019-05-15T20:25:57.695Z,2.00
2019-05-15T20:28:32.845Z,2.33
2019-05-15T20:31:07.771Z,2.40
2019-05-15T20:33:38.326Z,2.03
2019-05-15T20:36:09.667Z,2.23
2019-05-15T20:38:40.815Z,2.00
2019-05-15T20:41:11.914Z,2.97
2019-05-15T20:43:42.917Z,2.90
2019-05-15T20:46:34.983Z,2.33
2019-05-15T20:49:23.300Z,2.03
2019-05-15T20:52:22.578Z,2.23
2019-05-15T20:54:53.695Z,2.20
2019-05-15T20:57:25.169Z,1.83
2019-05-15T20:59:58.559Z,2.33
2019-05-15T21:02:29.290Z,2.30
2019-05-15T21:05:00.873Z,2.57
2019-05-15T21:07:38.703Z,2.63
2019-05-15T21:10:08.291Z,2.80
2019-05-15T21:12:40.869Z,2.67
2019-05-15T21:15:12.412Z,2.08
2019-05-15T21:17:44.540Z,2.75
2019-05-15T21:20:18.268Z,1.90
2019-05-15T21:22:49.566Z,2.33
2019-05-15T21:25:20.718Z,2.13
2019-05-15T21:27:51.553Z,2.80
2019-05-15T21:30:22.424Z,2.22
2019-05-15T21:32:53.975Z,3.70
2019-05-15T21:35:27.757Z,2.90
2019-05-15T21:37:59.784Z,2.70
2019-05-15T21:40:31.983Z,2.60
2019-05-15T21:43:02.922Z,2.57
2019-05-15T21:45:33.916Z,2.23
2019-05-15T21:48:08.580Z,2.30
2019-05-15T21:50:38.988Z,3.30
2019-05-15T21:53:09.856Z,3.05
2019-05-15T21:55:40.842Z,2.07
2019-05-15T21:58:11.890Z,2.80
2019-05-15T22:00:48.369Z,2.30
2019-05-15T22:03:19.785Z,2.30
2019-05-15T22:05:50.779Z,2.13
2019-05-15T22:08:21.837Z,2.37
2019-05-15T22:10:53.106Z,2.23
2019-05-15T22:13:24.106Z,2.10
2019-05-15T22:15:55.020Z,1.93
2019-05-15T22:18:27.931Z,2.07
2019-05-15T22:20:58.984Z,2.20
2019-05-15T22:23:30.120Z,2.63
2019-05-15T22:26:01.248Z,2.23
2019-05-15T22:28:32.237Z,2.53
2019-05-15T22:31:03.290Z,2.17
2019-05-15T22:33:34.387Z,2.90
2019-05-15T22:36:07.870Z,2.53
2019-05-15T22:38:38.362Z,1.60
2019-05-15T22:41:10.524Z,2.63
2019-05-15T22:43:41.605Z,2.70
2019-05-15T22:46:12.519Z,1.73
2019-05-15T22:48:43.444Z,2.10
2019-05-15T22:51:14.491Z,1.95
2019-05-15T22:53:45.636Z,2.00
2019-05-15T22:56:18.212Z,2.13
2019-05-15T22:58:49.211Z,2.23
2019-05-15T23:01:20.082Z,2.13
2019-05-15T23:03:50.991Z,2.00
2019-05-15T23:06:21.953Z,2.03
2019-05-15T23:08:52.957Z,1.97
2019-05-15T23:11:26.235Z,1.90
2019-05-15T23:13:58.698Z,1.90
2019-05-15T23:16:29.767Z,1.90
2019-05-15T23:19:01.321Z,2.17
2019-05-15T23:21:32.209Z,2.33
2019-05-15T23:24:03.165Z,2.03
2019-05-15T23:26:34.536Z,1.93
2019-05-15T23:29:07.817Z,1.83
2019-05-15T23:31:39.186Z,2.10
2019-05-15T23:34:09.911Z,2.30
2019-05-15T23:36:40.722Z,2.80
2019-05-15T23:39:11.634Z,2.05
2019-05-15T23:41:42.625Z,2.93
2019-05-15T23:44:13.692Z,2.37
2019-05-15T23:46:44.669Z,2.10
2019-05-15T23:49:15.709Z,2.60
2019-05-15T23:51:48.685Z,1.90
2019-05-15T23:54:19.552Z,1.85
2019-05-15T23:56:50.440Z,2.20
2019-05-15T23:59:21.466Z,2.10
